sensor_id;sensor_type;location;lat;lon;timestamp;P1;durP1;ratioP1;P2;durP2;ratioP2
19848;SDS011;10085;51.120;6.956;2023-07-13T00:00:38;2.28;;;1.55;;
19848;SDS011;10085;51.120;6.956;2023-07-13T00:05:43;2.10;;;1.45;;
19848;SDS011;10085;51.120;6.956;2023-07-13T00:10:45;2.72;;;1.42;;
19848;SDS011;10085;51.120;6.956;2023-07-13T00:15:50;3.50;;;1.42;;
19848;SDS011;10085;51.120;6.956;2023-07-13T00:20:56;2.35;;;1.30;;
19848;SDS011;10085;51.120;6.956;2023-07-13T00:26:06;3.55;;;1.30;;
19848;SDS011;10085;51.120;6.956;2023-07-13T00:31:12;2.50;;;1.40;;
19848;SDS011;10085;51.120;6.956;2023-07-13T00:36:19;4.13;;;1.33;;
19848;SDS011;10085;51.120;6.956;2023-07-13T00:41:22;2.00;;;1.20;;
19848;SDS011;10085;51.120;6.956;2023-07-13T00:46:26;2.83;;;1.23;;
19848;SDS011;10085;51.120;6.956;2023-07-13T00:51:33;2.45;;;1.40;;
19848;SDS011;10085;51.120;6.956;2023-07-13T00:56:39;4.68;;;1.45;;
19848;SDS011;10085;51.120;6.956;2023-07-13T01:01:42;3.30;;;1.50;;
19848;SDS011;10085;51.120;6.956;2023-07-13T01:06:46;2.78;;;1.30;;
19848;SDS011;10085;51.120;6.956;2023-07-13T01:11:49;3.65;;;1.30;;
19848;SDS011;10085;51.120;6.956;2023-07-13T01:16:52;3.22;;;1.40;;
19848;SDS011;10085;51.120;6.956;2023-07-13T01:21:57;2.95;;;1.00;;
19848;SDS011;10085;51.120;6.956;2023-07-13T01:26:59;2.63;;;1.38;;
19848;SDS011;10085;51.120;6.956;2023-07-13T01:32:03;3.10;;;1.30;;
19848;SDS011;10085;51.120;6.956;2023-07-13T01:37:11;1.85;;;1.40;;
19848;SDS011;10085;51.120;6.956;2023-07-13T01:42:14;1.95;;;1.30;;
19848;SDS011;10085;51.120;6.956;2023-07-13T01:47:16;4.75;;;1.40;;
19848;SDS011;10085;51.120;6.956;2023-07-13T01:52:21;1.65;;;1.20;;
19848;SDS011;10085;51.120;6.956;2023-07-13T01:57:24;1.77;;;1.20;;
19848;SDS011;10085;51.120;6.956;2023-07-13T02:02:27;3.42;;;1.40;;
19848;SDS011;10085;51.120;6.956;2023-07-13T02:07:31;2.53;;;1.27;;
19848;SDS011;10085;51.120;6.956;2023-07-13T02:12:34;1.55;;;1.25;;
19848;SDS011;10085;51.120;6.956;2023-07-13T02:17:37;1.88;;;1.10;;
19848;SDS011;10085;51.120;6.956;2023-07-13T02:22:41;2.40;;;1.23;;
19848;SDS011;10085;51.120;6.956;2023-07-13T02:27:44;1.88;;;1.30;;
19848;SDS011;10085;51.120;6.956;2023-07-13T02:32:46;3.97;;;1.20;;
19848;SDS011;10085;51.120;6.956;2023-07-13T02:37:53;3.50;;;1.30;;
19848;SDS011;10085;51.120;6.956;2023-07-13T02:42:55;2.22;;;1.00;;
19848;SDS011;10085;51.120;6.956;2023-07-13T02:47:58;1.60;;;1.20;;
19848;SDS011;10085;51.120;6.956;2023-07-13T02:53:02;2.88;;;1.27;;
19848;SDS011;10085;51.120;6.956;2023-07-13T02:58:05;5.68;;;1.38;;
19848;SDS011;10085;51.120;6.956;2023-07-13T03:03:08;1.45;;;1.10;;
19848;SDS011;10085;51.120;6.956;2023-07-13T03:08:12;3.92;;;1.20;;
19848;SDS011;10085;51.120;6.956;2023-07-13T03:13:17;2.03;;;1.23;;
19848;SDS011;10085;51.120;6.956;2023-07-13T03:18:20;1.85;;;1.20;;
19848;SDS011;10085;51.120;6.956;2023-07-13T03:23:24;1.65;;;1.02;;
19848;SDS011;10085;51.120;6.956;2023-07-13T03:28:28;5.43;;;1.50;;
19848;SDS011;10085;51.120;6.956;2023-07-13T03:33:31;3.60;;;1.20;;
19848;SDS011;10085;51.120;6.956;2023-07-13T03:38:37;2.00;;;1.10;;
19848;SDS011;10085;51.120;6.956;2023-07-13T03:43:39;3.28;;;1.40;;
19848;SDS011;10085;51.120;6.956;2023-07-13T03:48:43;3.17;;;1.30;;
19848;SDS011;10085;51.120;6.956;2023-07-13T03:53:48;2.88;;;1.50;;
19848;SDS011;10085;51.120;6.956;2023-07-13T03:58:53;3.92;;;1.30;;
19848;SDS011;10085;51.120;6.956;2023-07-13T04:03:56;2.85;;;1.33;;
19848;SDS011;10085;51.120;6.956;2023-07-13T04:09:06;3.83;;;1.40;;
19848;SDS011;10085;51.120;6.956;2023-07-13T04:14:10;2.10;;;1.10;;
19848;SDS011;10085;51.120;6.956;2023-07-13T04:19:13;2.70;;;1.10;;
19848;SDS011;10085;51.120;6.956;2023-07-13T04:24:17;2.22;;;1.30;;
19848;SDS011;10085;51.120;6.956;2023-07-13T04:29:20;2.65;;;1.00;;
19848;SDS011;10085;51.120;6.956;2023-07-13T04:34:23;3.30;;;1.23;;
19848;SDS011;10085;51.120;6.956;2023-07-13T04:39:27;4.60;;;1.45;;
19848;SDS011;10085;51.120;6.956;2023-07-13T04:44:30;3.15;;;1.20;;
19848;SDS011;10085;51.120;6.956;2023-07-13T04:49:33;3.95;;;1.45;;
19848;SDS011;10085;51.120;6.956;2023-07-13T04:54:37;11.40;;;5.60;;
19848;SDS011;10085;51.120;6.956;2023-07-13T04:59:40;30.45;;;12.90;;
19848;SDS011;10085;51.120;6.956;2023-07-13T05:04:43;55.83;;;23.00;;
19848;SDS011;10085;51.120;6.956;2023-07-13T05:09:50;62.67;;;26.77;;
19848;SDS011;10085;51.120;6.956;2023-07-13T05:14:52;61.92;;;27.15;;
19848;SDS011;10085;51.120;6.956;2023-07-13T05:19:55;53.15;;;22.30;;
19848;SDS011;10085;51.120;6.956;2023-07-13T05:24:59;43.47;;;19.67;;
19848;SDS011;10085;51.120;6.956;2023-07-13T05:30:02;37.40;;;16.10;;
19848;SDS011;10085;51.120;6.956;2023-07-13T05:35:06;26.95;;;12.88;;
19848;SDS011;10085;51.120;6.956;2023-07-13T05:40:11;26.95;;;10.70;;
19848;SDS011;10085;51.120;6.956;2023-07-13T05:45:13;21.67;;;9.50;;
19848;SDS011;10085;51.120;6.956;2023-07-13T05:50:16;16.60;;;6.95;;
19848;SDS011;10085;51.120;6.956;2023-07-13T05:55:20;13.13;;;6.20;;
19848;SDS011;10085;51.120;6.956;2023-07-13T06:00:23;13.63;;;5.25;;
19848;SDS011;10085;51.120;6.956;2023-07-13T06:05:26;13.07;;;4.53;;
19848;SDS011;10085;51.120;6.956;2023-07-13T06:10:33;9.52;;;4.05;;
19848;SDS011;10085;51.120;6.956;2023-07-13T06:15:36;7.85;;;3.33;;
19848;SDS011;10085;51.120;6.956;2023-07-13T06:20:38;5.93;;;2.83;;
19848;SDS011;10085;51.120;6.956;2023-07-13T06:25:43;5.00;;;2.85;;
19848;SDS011;10085;51.120;6.956;2023-07-13T06:30:46;5.05;;;2.58;;
19848;SDS011;10085;51.120;6.956;2023-07-13T06:35:48;5.63;;;2.10;;
19848;SDS011;10085;51.120;6.956;2023-07-13T06:40:52;3.72;;;1.90;;
19848;SDS011;10085;51.120;6.956;2023-07-13T06:45:55;4.68;;;1.80;;
19848;SDS011;10085;51.120;6.956;2023-07-13T06:50:58;4.70;;;1.95;;
19848;SDS011;10085;51.120;6.956;2023-07-13T06:56:02;3.70;;;1.80;;
19848;SDS011;10085;51.120;6.956;2023-07-13T07:01:06;4.30;;;1.65;;
19848;SDS011;10085;51.120;6.956;2023-07-13T07:06:12;3.85;;;1.48;;
19848;SDS011;10085;51.120;6.956;2023-07-13T07:11:18;4.10;;;1.80;;
19848;SDS011;10085;51.120;6.956;2023-07-13T07:16:24;5.72;;;1.90;;
19848;SDS011;10085;51.120;6.956;2023-07-13T07:21:27;2.88;;;1.60;;
19848;SDS011;10085;51.120;6.956;2023-07-13T07:26:31;3.65;;;1.50;;
19848;SDS011;10085;51.120;6.956;2023-07-13T07:31:45;3.35;;;1.70;;
19848;SDS011;10085;51.120;6.956;2023-07-13T07:37:04;4.85;;;1.63;;
19848;SDS011;10085;51.120;6.956;2023-07-13T07:42:11;4.35;;;1.83;;
19848;SDS011;10085;51.120;6.956;2023-07-13T07:47:14;5.47;;;1.95;;
19848;SDS011;10085;51.120;6.956;2023-07-13T07:52:17;2.97;;;1.55;;
19848;SDS011;10085;51.120;6.956;2023-07-13T07:57:21;5.15;;;1.92;;
19848;SDS011;10085;51.120;6.956;2023-07-13T08:02:27;3.72;;;1.80;;
19848;SDS011;10085;51.120;6.956;2023-07-13T08:07:33;4.55;;;1.83;;
19848;SDS011;10085;51.120;6.956;2023-07-13T08:12:37;4.57;;;1.70;;
19848;SDS011;10085;51.120;6.956;2023-07-13T08:17:44;4.25;;;2.05;;
19848;SDS011;10085;51.120;6.956;2023-07-13T08:22:47;5.57;;;1.95;;
19848;SDS011;10085;51.120;6.956;2023-07-13T08:27:51;4.60;;;2.42;;
19848;SDS011;10085;51.120;6.956;2023-07-13T08:32:54;3.22;;;2.47;;
19848;SDS011;10085;51.120;6.956;2023-07-13T08:37:56;4.40;;;2.75;;
19848;SDS011;10085;51.120;6.956;2023-07-13T08:43:01;3.05;;;2.50;;
19848;SDS011;10085;51.120;6.956;2023-07-13T08:48:04;6.28;;;3.10;;
19848;SDS011;10085;51.120;6.956;2023-07-13T08:53:10;5.95;;;2.47;;
19848;SDS011;10085;51.120;6.956;2023-07-13T08:58:16;5.28;;;2.65;;
19848;SDS011;10085;51.120;6.956;2023-07-13T09:03:21;5.50;;;2.67;;
19848;SDS011;10085;51.120;6.956;2023-07-13T09:08:38;5.45;;;2.90;;
19848;SDS011;10085;51.120;6.956;2023-07-13T09:13:51;5.00;;;2.47;;
19848;SDS011;10085;51.120;6.956;2023-07-13T09:18:59;6.38;;;2.55;;
19848;SDS011;10085;51.120;6.956;2023-07-13T09:24:17;3.85;;;2.30;;
19848;SDS011;10085;51.120;6.956;2023-07-13T09:29:32;3.42;;;2.20;;
19848;SDS011;10085;51.120;6.956;2023-07-13T09:34:36;6.43;;;2.45;;
19848;SDS011;10085;51.120;6.956;2023-07-13T09:39:39;6.53;;;2.58;;
19848;SDS011;10085;51.120;6.956;2023-07-13T09:44:50;5.07;;;2.10;;
19848;SDS011;10085;51.120;6.956;2023-07-13T09:49:55;6.97;;;2.22;;
19848;SDS011;10085;51.120;6.956;2023-07-13T09:55:03;6.05;;;2.15;;
19848;SDS011;10085;51.120;6.956;2023-07-13T10:00:18;6.05;;;2.30;;
19848;SDS011;10085;51.120;6.956;2023-07-13T10:05:23;4.40;;;2.20;;
19848;SDS011;10085;51.120;6.956;2023-07-13T10:10:27;3.60;;;2.13;;
19848;SDS011;10085;51.120;6.956;2023-07-13T10:15:31;7.03;;;2.30;;
19848;SDS011;10085;51.120;6.956;2023-07-13T10:20:34;5.25;;;2.30;;
19848;SDS011;10085;51.120;6.956;2023-07-13T10:25:37;3.70;;;2.00;;
19848;SDS011;10085;51.120;6.956;2023-07-13T10:30:43;6.80;;;2.08;;
19848;SDS011;10085;51.120;6.956;2023-07-13T10:35:49;3.10;;;1.83;;
19848;SDS011;10085;51.120;6.956;2023-07-13T10:40:56;4.35;;;2.20;;
19848;SDS011;10085;51.120;6.956;2023-07-13T10:46:02;6.18;;;2.10;;
19848;SDS011;10085;51.120;6.956;2023-07-13T10:51:06;4.78;;;2.03;;
19848;SDS011;10085;51.120;6.956;2023-07-13T10:56:22;2.83;;;1.85;;
19848;SDS011;10085;51.120;6.956;2023-07-13T11:01:28;4.82;;;1.88;;
19848;SDS011;10085;51.120;6.956;2023-07-13T11:06:42;4.57;;;2.05;;
19848;SDS011;10085;51.120;6.956;2023-07-13T11:11:46;3.55;;;1.90;;
19848;SDS011;10085;51.120;6.956;2023-07-13T11:16:50;4.68;;;2.10;;
19848;SDS011;10085;51.120;6.956;2023-07-13T11:22:01;3.92;;;1.85;;
19848;SDS011;10085;51.120;6.956;2023-07-13T11:27:14;4.38;;;1.77;;
19848;SDS011;10085;51.120;6.956;2023-07-13T11:32:30;4.00;;;1.92;;
19848;SDS011;10085;51.120;6.956;2023-07-13T11:37:33;4.13;;;1.83;;
19848;SDS011;10085;51.120;6.956;2023-07-13T11:42:36;3.90;;;1.85;;
19848;SDS011;10085;51.120;6.956;2023-07-13T11:47:42;4.40;;;2.10;;
19848;SDS011;10085;51.120;6.956;2023-07-13T11:52:45;6.53;;;2.10;;
19848;SDS011;10085;51.120;6.956;2023-07-13T11:57:50;3.75;;;2.10;;
19848;SDS011;10085;51.120;6.956;2023-07-13T12:02:56;4.65;;;1.98;;
19848;SDS011;10085;51.120;6.956;2023-07-13T12:08:04;3.60;;;2.00;;
19848;SDS011;10085;51.120;6.956;2023-07-13T12:13:24;5.32;;;2.25;;
19848;SDS011;10085;51.120;6.956;2023-07-13T12:18:30;3.80;;;2.00;;
19848;SDS011;10085;51.120;6.956;2023-07-13T12:23:35;4.68;;;2.10;;
19848;SDS011;10085;51.120;6.956;2023-07-13T12:28:38;4.30;;;1.80;;
19848;SDS011;10085;51.120;6.956;2023-07-13T12:33:47;4.80;;;2.00;;
19848;SDS011;10085;51.120;6.956;2023-07-13T12:38:52;3.22;;;1.70;;
19848;SDS011;10085;51.120;6.956;2023-07-13T12:43:55;3.92;;;1.80;;
19848;SDS011;10085;51.120;6.956;2023-07-13T12:48:59;2.30;;;1.80;;
19848;SDS011;10085;51.120;6.956;2023-07-13T12:54:19;2.38;;;1.60;;
19848;SDS011;10085;51.120;6.956;2023-07-13T12:59:23;3.35;;;1.75;;
19848;SDS011;10085;51.120;6.956;2023-07-13T13:04:28;2.47;;;1.70;;
19848;SDS011;10085;51.120;6.956;2023-07-13T13:09:31;2.88;;;1.70;;
19848;SDS011;10085;51.120;6.956;2023-07-13T13:14:35;2.70;;;1.90;;
19848;SDS011;10085;51.120;6.956;2023-07-13T13:19:39;1.83;;;1.67;;
19848;SDS011;10085;51.120;6.956;2023-07-13T13:24:42;3.75;;;1.60;;
19848;SDS011;10085;51.120;6.956;2023-07-13T13:29:45;2.30;;;1.60;;
19848;SDS011;10085;51.120;6.956;2023-07-13T13:34:49;3.13;;;1.70;;
19848;SDS011;10085;51.120;6.956;2023-07-13T13:39:52;2.78;;;1.67;;
19848;SDS011;10085;51.120;6.956;2023-07-13T13:45:09;2.97;;;1.50;;
19848;SDS011;10085;51.120;6.956;2023-07-13T13:50:15;2.13;;;1.45;;
19848;SDS011;10085;51.120;6.956;2023-07-13T13:55:19;3.15;;;1.70;;
19848;SDS011;10085;51.120;6.956;2023-07-13T14:00:22;2.75;;;1.70;;
19848;SDS011;10085;51.120;6.956;2023-07-13T14:05:27;2.17;;;1.52;;
19848;SDS011;10085;51.120;6.956;2023-07-13T14:10:34;2.70;;;1.45;;
19848;SDS011;10085;51.120;6.956;2023-07-13T14:15:37;3.10;;;1.50;;
19848;SDS011;10085;51.120;6.956;2023-07-13T14:20:41;2.90;;;1.55;;
19848;SDS011;10085;51.120;6.956;2023-07-13T14:25:44;2.90;;;1.50;;
19848;SDS011;10085;51.120;6.956;2023-07-13T14:30:47;3.72;;;1.70;;
19848;SDS011;10085;51.120;6.956;2023-07-13T14:35:51;3.47;;;1.40;;
19848;SDS011;10085;51.120;6.956;2023-07-13T14:40:54;2.97;;;1.60;;
19848;SDS011;10085;51.120;6.956;2023-07-13T14:45:57;2.45;;;1.60;;
19848;SDS011;10085;51.120;6.956;2023-07-13T14:51:02;3.47;;;1.67;;
19848;SDS011;10085;51.120;6.956;2023-07-13T14:56:09;1.70;;;1.38;;
19848;SDS011;10085;51.120;6.956;2023-07-13T15:01:13;1.67;;;1.30;;
19848;SDS011;10085;51.120;6.956;2023-07-13T15:06:19;1.70;;;1.50;;
19848;SDS011;10085;51.120;6.956;2023-07-13T15:11:22;4.18;;;1.67;;
19848;SDS011;10085;51.120;6.956;2023-07-13T15:16:25;2.00;;;1.45;;
19848;SDS011;10085;51.120;6.956;2023-07-13T15:21:29;6.35;;;1.60;;
19848;SDS011;10085;51.120;6.956;2023-07-13T15:26:35;2.97;;;1.80;;
19848;SDS011;10085;51.120;6.956;2023-07-13T15:31:40;3.95;;;1.48;;
19848;SDS011;10085;51.120;6.956;2023-07-13T15:36:44;2.78;;;1.55;;
19848;SDS011;10085;51.120;6.956;2023-07-13T15:41:47;2.95;;;1.60;;
19848;SDS011;10085;51.120;6.956;2023-07-13T15:46:50;2.60;;;1.60;;
19848;SDS011;10085;51.120;6.956;2023-07-13T15:51:54;2.75;;;1.77;;
19848;SDS011;10085;51.120;6.956;2023-07-13T15:57:01;3.05;;;1.75;;
19848;SDS011;10085;51.120;6.956;2023-07-13T16:02:10;4.18;;;1.50;;
19848;SDS011;10085;51.120;6.956;2023-07-13T16:07:16;3.05;;;1.60;;
19848;SDS011;10085;51.120;6.956;2023-07-13T16:12:20;3.50;;;1.73;;
19848;SDS011;10085;51.120;6.956;2023-07-13T16:17:23;2.30;;;1.58;;
19848;SDS011;10085;51.120;6.956;2023-07-13T16:22:27;2.55;;;1.70;;
19848;SDS011;10085;51.120;6.956;2023-07-13T16:27:30;4.05;;;1.70;;
19848;SDS011;10085;51.120;6.956;2023-07-13T16:32:35;3.40;;;1.85;;
19848;SDS011;10085;51.120;6.956;2023-07-13T16:37:39;4.00;;;1.83;;
19848;SDS011;10085;51.120;6.956;2023-07-13T16:43:02;2.63;;;1.80;;
19848;SDS011;10085;51.120;6.956;2023-07-13T16:48:09;3.97;;;1.90;;
19848;SDS011;10085;51.120;6.956;2023-07-13T16:53:19;3.40;;;1.75;;
19848;SDS011;10085;51.120;6.956;2023-07-13T16:58:24;2.40;;;1.80;;
19848;SDS011;10085;51.120;6.956;2023-07-13T17:03:29;3.15;;;2.10;;
19848;SDS011;10085;51.120;6.956;2023-07-13T17:08:35;4.05;;;2.08;;
19848;SDS011;10085;51.120;6.956;2023-07-13T17:13:38;2.30;;;1.80;;
19848;SDS011;10085;51.120;6.956;2023-07-13T17:18:43;3.17;;;1.85;;
19848;SDS011;10085;51.120;6.956;2023-07-13T17:23:47;3.58;;;1.95;;
19848;SDS011;10085;51.120;6.956;2023-07-13T17:28:53;3.30;;;1.85;;
19848;SDS011;10085;51.120;6.956;2023-07-13T17:33:56;2.28;;;1.90;;
19848;SDS011;10085;51.120;6.956;2023-07-13T17:39:00;5.15;;;2.20;;
19848;SDS011;10085;51.120;6.956;2023-07-13T17:44:05;2.55;;;1.90;;
19848;SDS011;10085;51.120;6.956;2023-07-13T17:49:12;4.88;;;2.20;;
19848;SDS011;10085;51.120;6.956;2023-07-13T17:54:22;2.15;;;1.70;;
19848;SDS011;10085;51.120;6.956;2023-07-13T17:59:26;3.38;;;2.05;;
19848;SDS011;10085;51.120;6.956;2023-07-13T18:04:29;3.17;;;2.00;;
19848;SDS011;10085;51.120;6.956;2023-07-13T18:09:34;3.17;;;1.67;;
19848;SDS011;10085;51.120;6.956;2023-07-13T18:14:38;3.92;;;2.08;;
19848;SDS011;10085;51.120;6.956;2023-07-13T18:19:42;5.25;;;2.10;;
19848;SDS011;10085;51.120;6.956;2023-07-13T18:24:48;3.38;;;1.88;;
19848;SDS011;10085;51.120;6.956;2023-07-13T18:29:51;4.72;;;1.90;;
19848;SDS011;10085;51.120;6.956;2023-07-13T18:34:56;2.85;;;1.80;;
19848;SDS011;10085;51.120;6.956;2023-07-13T18:40:00;4.15;;;1.85;;
19848;SDS011;10085;51.120;6.956;2023-07-13T18:45:03;4.82;;;1.90;;
19848;SDS011;10085;51.120;6.956;2023-07-13T18:50:16;2.83;;;2.00;;
19848;SDS011;10085;51.120;6.956;2023-07-13T18:55:23;3.08;;;2.10;;
19848;SDS011;10085;51.120;6.956;2023-07-13T19:00:26;4.47;;;2.10;;
19848;SDS011;10085;51.120;6.956;2023-07-13T19:05:32;4.97;;;2.20;;
19848;SDS011;10085;51.120;6.956;2023-07-13T19:10:57;3.67;;;1.95;;
19848;SDS011;10085;51.120;6.956;2023-07-13T19:16:00;2.58;;;1.90;;
19848;SDS011;10085;51.120;6.956;2023-07-13T19:21:04;3.45;;;1.90;;
19848;SDS011;10085;51.120;6.956;2023-07-13T19:26:14;3.17;;;2.10;;
19848;SDS011;10085;51.120;6.956;2023-07-13T19:31:20;2.80;;;2.08;;
19848;SDS011;10085;51.120;6.956;2023-07-13T19:36:24;3.45;;;1.90;;
19848;SDS011;10085;51.120;6.956;2023-07-13T19:41:29;3.17;;;2.03;;
19848;SDS011;10085;51.120;6.956;2023-07-13T19:46:36;3.45;;;2.13;;
19848;SDS011;10085;51.120;6.956;2023-07-13T19:51:39;4.90;;;2.45;;
19848;SDS011;10085;51.120;6.956;2023-07-13T19:56:44;4.13;;;2.13;;
19848;SDS011;10085;51.120;6.956;2023-07-13T20:01:47;2.95;;;2.20;;
19848;SDS011;10085;51.120;6.956;2023-07-13T20:06:50;4.07;;;2.10;;
19848;SDS011;10085;51.120;6.956;2023-07-13T20:11:54;3.50;;;2.15;;
19848;SDS011;10085;51.120;6.956;2023-07-13T20:16:58;2.90;;;1.95;;
19848;SDS011;10085;51.120;6.956;2023-07-13T20:22:03;2.05;;;1.80;;
19848;SDS011;10085;51.120;6.956;2023-07-13T20:27:07;3.30;;;2.08;;
19848;SDS011;10085;51.120;6.956;2023-07-13T20:32:11;3.05;;;2.08;;
19848;SDS011;10085;51.120;6.956;2023-07-13T20:37:25;5.35;;;2.20;;
19848;SDS011;10085;51.120;6.956;2023-07-13T20:42:34;3.40;;;2.00;;
19848;SDS011;10085;51.120;6.956;2023-07-13T20:47:36;3.38;;;2.20;;
19848;SDS011;10085;51.120;6.956;2023-07-13T20:52:40;4.72;;;2.28;;
19848;SDS011;10085;51.120;6.956;2023-07-13T20:57:44;5.82;;;2.20;;
19848;SDS011;10085;51.120;6.956;2023-07-13T21:02:47;3.28;;;2.30;;
19848;SDS011;10085;51.120;6.956;2023-07-13T21:07:51;3.97;;;2.10;;
19848;SDS011;10085;51.120;6.956;2023-07-13T21:12:56;4.30;;;2.10;;
19848;SDS011;10085;51.120;6.956;2023-07-13T21:17:59;5.07;;;2.35;;
19848;SDS011;10085;51.120;6.956;2023-07-13T21:23:04;3.95;;;2.45;;
19848;SDS011;10085;51.120;6.956;2023-07-13T21:28:16;4.68;;;2.40;;
19848;SDS011;10085;51.120;6.956;2023-07-13T21:33:19;3.35;;;2.30;;
19848;SDS011;10085;51.120;6.956;2023-07-13T21:38:24;3.22;;;2.00;;
19848;SDS011;10085;51.120;6.956;2023-07-13T21:43:30;3.10;;;2.30;;
19848;SDS011;10085;51.120;6.956;2023-07-13T21:48:33;4.32;;;2.60;;
19848;SDS011;10085;51.120;6.956;2023-07-13T21:53:36;3.30;;;2.22;;
19848;SDS011;10085;51.120;6.956;2023-07-13T21:58:40;5.43;;;2.50;;
19848;SDS011;10085;51.120;6.956;2023-07-13T22:03:44;2.83;;;2.33;;
19848;SDS011;10085;51.120;6.956;2023-07-13T22:08:47;4.00;;;2.30;;
19848;SDS011;10085;51.120;6.956;2023-07-13T22:13:52;3.22;;;2.33;;
19848;SDS011;10085;51.120;6.956;2023-07-13T22:18:56;4.32;;;2.80;;
19848;SDS011;10085;51.120;6.956;2023-07-13T22:24:00;4.40;;;2.40;;
19848;SDS011;10085;51.120;6.956;2023-07-13T22:29:09;4.05;;;2.67;;
19848;SDS011;10085;51.120;6.956;2023-07-13T22:34:15;4.57;;;2.58;;
19848;SDS011;10085;51.120;6.956;2023-07-13T22:39:21;4.13;;;2.40;;
19848;SDS011;10085;51.120;6.956;2023-07-13T22:44:29;3.83;;;2.22;;
19848;SDS011;10085;51.120;6.956;2023-07-13T22:49:32;3.72;;;2.28;;
19848;SDS011;10085;51.120;6.956;2023-07-13T22:54:37;3.17;;;2.05;;
19848;SDS011;10085;51.120;6.956;2023-07-13T22:59:43;5.25;;;2.40;;
19848;SDS011;10085;51.120;6.956;2023-07-13T23:04:45;3.00;;;2.47;;
19848;SDS011;10085;51.120;6.956;2023-07-13T23:09:50;4.35;;;2.50;;
19848;SDS011;10085;51.120;6.956;2023-07-13T23:15:09;3.35;;;2.00;;
19848;SDS011;10085;51.120;6.956;2023-07-13T23:20:14;3.45;;;2.30;;
19848;SDS011;10085;51.120;6.956;2023-07-13T23:25:19;4.68;;;2.45;;
19848;SDS011;10085;51.120;6.956;2023-07-13T23:30:23;4.15;;;2.30;;
19848;SDS011;10085;51.120;6.956;2023-07-13T23:35:29;3.88;;;2.30;;
19848;SDS011;10085;51.120;6.956;2023-07-13T23:40:33;4.63;;;2.28;;
19848;SDS011;10085;51.120;6.956;2023-07-13T23:45:38;3.05;;;2.28;;
19848;SDS011;10085;51.120;6.956;2023-07-13T23:50:41;4.45;;;1.90;;
19848;SDS011;10085;51.120;6.956;2023-07-13T23:55:45;4.65;;;2.00;;
